createdAt,value
2018-12-20T00:00:51.526Z,8.10
2018-12-20T00:03:26.012Z,8.06
2018-12-20T00:06:01.679Z,8.07
2018-12-20T00:11:20.874Z,7.95
2018-12-20T00:13:56.140Z,7.89
2018-12-20T00:16:33.615Z,7.91
2018-12-20T00:19:10.452Z,7.83
2018-12-20T00:21:45.990Z,7.80
2018-12-20T00:24:21.622Z,7.79
2018-12-20T00:26:58.082Z,7.81
2018-12-20T00:29:32.023Z,7.78
2018-12-20T00:32:09.942Z,7.84
2018-12-20T00:34:52.358Z,7.87
2018-12-20T00:37:27.481Z,7.95
2018-12-20T00:40:06.432Z,7.94
2018-12-20T00:42:43.769Z,7.95
2018-12-20T00:45:19.645Z,7.95
2018-12-20T00:47:53.705Z,8.01
2018-12-20T00:53:11.994Z,8.06
2018-12-20T00:55:44.613Z,8.08
2018-12-20T00:58:20.906Z,8.07
2018-12-20T01:00:58.068Z,8.04
2018-12-20T01:03:31.483Z,8.04
2018-12-20T01:06:05.826Z,8.08
2018-12-20T01:08:41.665Z,8.11
2018-12-20T01:11:19.093Z,8.15
2018-12-20T01:13:52.661Z,8.18
2018-12-20T01:16:28.492Z,8.21
2018-12-20T01:19:04.504Z,8.25
2018-12-20T01:21:39.037Z,8.16
2018-12-20T01:24:12.788Z,8.24
2018-12-20T01:26:46.085Z,8.18
2018-12-20T01:29:21.264Z,8.17
2018-12-20T01:31:55.366Z,8.23
2018-12-20T01:34:29.540Z,8.29
2018-12-20T01:37:05.109Z,8.30
2018-12-20T01:39:39.606Z,8.26
2018-12-20T01:42:14.691Z,8.26
2018-12-20T01:44:53.428Z,8.24
2018-12-20T01:47:27.641Z,8.17
2018-12-20T01:50:02.575Z,8.13
2018-12-20T01:52:36.773Z,8.13
2018-12-20T01:55:10.366Z,8.16
2018-12-20T01:57:44.806Z,8.13
2018-12-20T02:00:19.995Z,8.17
2018-12-20T02:02:56.148Z,8.19
2018-12-20T02:05:30.267Z,8.25
2018-12-20T02:08:04.702Z,8.32
2018-12-20T02:10:40.878Z,8.32
2018-12-20T02:13:14.465Z,8.33
2018-12-20T02:15:48.138Z,8.34
2018-12-20T02:18:21.652Z,8.36
2018-12-20T02:20:57.038Z,8.38
2018-12-20T02:23:30.505Z,8.36
2018-12-20T02:26:07.590Z,8.38
2018-12-20T02:28:43.589Z,8.29
2018-12-20T02:31:19.197Z,8.34
2018-12-20T02:33:52.581Z,8.32
2018-12-20T02:36:26.649Z,8.38
2018-12-20T02:39:02.455Z,8.38
2018-12-20T02:41:38.959Z,8.43
2018-12-20T02:44:15.839Z,8.45
2018-12-20T02:46:51.121Z,8.42
2018-12-20T02:49:25.357Z,8.31
2018-12-20T02:51:58.843Z,8.37
2018-12-20T02:54:31.640Z,8.36
2018-12-20T02:57:04.354Z,8.36
2018-12-20T02:59:36.978Z,8.32
2018-12-20T03:02:10.560Z,8.35
2018-12-20T03:04:43.224Z,8.44
2018-12-20T03:07:16.115Z,8.35
2018-12-20T03:09:48.871Z,8.39
2018-12-20T03:12:21.753Z,8.45
2018-12-20T03:14:54.854Z,8.50
2018-12-20T03:17:27.750Z,8.53
2018-12-20T03:20:00.541Z,8.47
2018-12-20T03:22:33.265Z,8.42
2018-12-20T03:25:05.881Z,8.47
2018-12-20T03:27:38.665Z,8.51
2018-12-20T03:30:11.353Z,8.50
2018-12-20T03:32:44.289Z,8.55
2018-12-20T03:35:17.802Z,8.54
2018-12-20T03:37:50.583Z,8.51
2018-12-20T03:40:23.268Z,8.56
2018-12-20T03:42:56.233Z,8.57
2018-12-20T03:45:29.372Z,8.57
2018-12-20T03:48:02.362Z,8.62
2018-12-20T03:50:34.983Z,8.67
2018-12-20T03:53:07.793Z,8.63
2018-12-20T03:55:40.729Z,8.68
2018-12-20T03:58:13.545Z,8.73
2018-12-20T04:00:46.401Z,8.73
2018-12-20T04:03:19.286Z,8.75
2018-12-20T04:05:51.925Z,8.77
2018-12-20T04:08:24.686Z,8.81
2018-12-20T04:10:57.267Z,8.78
2018-12-20T04:13:29.939Z,8.70
2018-12-20T04:16:02.805Z,8.70
2018-12-20T04:18:35.665Z,8.69
2018-12-20T04:21:08.339Z,8.70
2018-12-20T04:23:41.010Z,8.73
2018-12-20T04:26:13.679Z,8.76
2018-12-20T04:28:46.658Z,8.77
2018-12-20T04:31:19.467Z,8.75
2018-12-20T04:33:52.097Z,8.75
2018-12-20T04:36:24.755Z,8.74
2018-12-20T04:38:57.741Z,8.79
2018-12-20T04:41:30.707Z,8.78
2018-12-20T04:44:03.672Z,8.70
2018-12-20T04:46:36.364Z,8.65
2018-12-20T04:49:09.316Z,8.69
2018-12-20T04:51:42.359Z,8.76
2018-12-20T04:54:15.350Z,8.77
2018-12-20T04:56:48.172Z,8.66
2018-12-20T04:59:20.949Z,8.73
2018-12-20T05:01:53.774Z,8.76
2018-12-20T05:04:26.627Z,8.78
2018-12-20T05:06:59.292Z,8.77
2018-12-20T05:09:31.944Z,8.77
2018-12-20T05:12:04.928Z,8.84
2018-12-20T05:14:37.858Z,8.90
2018-12-20T05:17:10.679Z,8.93
2018-12-20T05:19:43.679Z,8.96
2018-12-20T05:22:16.519Z,8.92
2018-12-20T05:24:49.239Z,8.84
2018-12-20T05:27:21.876Z,8.82
2018-12-20T05:29:54.628Z,8.77
2018-12-20T05:32:27.260Z,8.79
2018-12-20T05:35:00.113Z,8.87
2018-12-20T05:37:33.213Z,8.81
2018-12-20T05:40:06.705Z,8.88
2018-12-20T05:42:39.610Z,8.90
2018-12-20T05:45:13.467Z,8.91
2018-12-20T05:47:46.305Z,8.90
2018-12-20T05:50:19.157Z,8.89
2018-12-20T05:52:52.001Z,8.87
2018-12-20T05:55:24.728Z,8.84
2018-12-20T05:57:57.655Z,8.74
2018-12-20T06:00:30.466Z,8.75
2018-12-20T06:03:03.041Z,8.78
2018-12-20T06:05:35.794Z,8.78
2018-12-20T06:08:08.462Z,8.83
2018-12-20T06:10:41.232Z,8.84
2018-12-20T06:13:14.139Z,8.86
2018-12-20T06:15:47.153Z,8.81
2018-12-20T06:18:19.985Z,8.81
2018-12-20T06:20:52.823Z,8.83
2018-12-20T06:23:25.415Z,8.75
2018-12-20T06:25:58.061Z,8.82
2018-12-20T06:28:30.647Z,8.82
2018-12-20T06:31:03.309Z,8.80
2018-12-20T06:33:35.955Z,8.86
2018-12-20T06:36:08.683Z,8.92
2018-12-20T06:38:41.449Z,8.85
2018-12-20T06:41:14.112Z,8.74
2018-12-20T06:43:46.739Z,8.84
2018-12-20T06:46:21.274Z,8.89
2018-12-20T06:48:54.182Z,8.90
2018-12-20T06:51:26.865Z,8.95
2018-12-20T06:53:59.504Z,8.95
2018-12-20T06:56:32.164Z,8.98
2018-12-20T06:59:04.896Z,8.95
2018-12-20T07:01:37.785Z,9.01
2018-12-20T07:04:10.358Z,9.02
2018-12-20T07:06:42.971Z,9.02
2018-12-20T07:09:15.736Z,9.04
2018-12-20T07:11:48.364Z,9.01
2018-12-20T07:14:20.991Z,9.04
2018-12-20T07:16:53.737Z,9.07
2018-12-20T07:19:26.337Z,9.08
2018-12-20T07:21:58.980Z,9.08
2018-12-20T07:24:31.645Z,9.11
2018-12-20T07:27:04.440Z,9.12
2018-12-20T07:29:37.069Z,9.08
2018-12-20T07:32:09.693Z,9.11
2018-12-20T07:34:47.899Z,9.14
2018-12-20T07:37:17.238Z,9.12
2018-12-20T07:39:49.873Z,9.17
2018-12-20T07:42:22.593Z,9.19
2018-12-20T07:44:55.375Z,9.23
2018-12-20T07:47:28.063Z,9.24
2018-12-20T07:50:00.646Z,9.23
2018-12-20T07:52:33.358Z,9.18
2018-12-20T07:55:05.976Z,9.22
2018-12-20T07:57:38.597Z,9.23
2018-12-20T08:00:11.448Z,9.21
2018-12-20T08:02:44.057Z,9.20
2018-12-20T08:05:16.692Z,9.21
2018-12-20T08:07:49.333Z,9.22
2018-12-20T08:10:21.921Z,9.18
2018-12-20T08:12:54.672Z,9.13
2018-12-20T08:15:27.286Z,9.14
2018-12-20T08:17:59.930Z,9.13
2018-12-20T08:20:32.545Z,9.10
2018-12-20T08:23:05.147Z,9.10
2018-12-20T08:25:37.771Z,9.05
2018-12-20T08:28:10.385Z,9.02
2018-12-20T08:30:42.974Z,9.06
2018-12-20T08:33:15.671Z,9.04
2018-12-20T08:35:48.264Z,9.02
2018-12-20T08:38:21.078Z,8.99
2018-12-20T08:40:53.705Z,9.04
2018-12-20T08:43:26.408Z,9.02
2018-12-20T08:45:59.038Z,9.04
2018-12-20T08:48:31.775Z,9.07
2018-12-20T08:51:04.492Z,9.09
2018-12-20T08:53:37.134Z,9.11
2018-12-20T08:56:09.697Z,9.15
2018-12-20T08:58:43.344Z,9.04
2018-12-20T09:01:15.945Z,9.13
2018-12-20T09:03:48.641Z,9.11
2018-12-20T09:06:21.200Z,9.15
2018-12-20T09:08:53.803Z,9.19
2018-12-20T09:11:26.408Z,9.22
2018-12-20T09:13:59.017Z,9.27
2018-12-20T09:16:31.647Z,9.17
2018-12-20T09:19:04.567Z,9.17
2018-12-20T09:21:37.271Z,9.23
2018-12-20T09:24:09.916Z,9.24
2018-12-20T09:26:42.509Z,9.31
2018-12-20T09:29:15.227Z,9.36
2018-12-20T09:31:47.812Z,9.38
2018-12-20T09:34:20.493Z,9.43
2018-12-20T09:36:53.096Z,9.52
2018-12-20T09:39:25.824Z,9.59
2018-12-20T09:41:58.534Z,9.61
2018-12-20T09:44:31.243Z,9.61
2018-12-20T09:47:11.931Z,9.66
2018-12-20T09:49:44.211Z,9.74
2018-12-20T09:52:16.960Z,9.80
2018-12-20T09:54:49.661Z,9.83
2018-12-20T09:57:22.281Z,9.90
2018-12-20T09:59:55.351Z,9.94
2018-12-20T10:02:27.963Z,9.98
2018-12-20T10:05:00.730Z,10.00
2018-12-20T10:07:33.351Z,10.04
2018-12-20T10:10:06.912Z,10.12
2018-12-20T10:12:39.520Z,10.18
2018-12-20T10:15:12.258Z,10.22
2018-12-20T10:17:44.909Z,10.17
2018-12-20T10:20:17.738Z,10.18
2018-12-20T10:22:50.550Z,10.20
2018-12-20T10:25:23.301Z,10.10
2018-12-20T10:27:55.954Z,10.11
2018-12-20T10:30:28.611Z,10.19
2018-12-20T10:33:01.255Z,10.24
2018-12-20T10:35:33.990Z,10.31
2018-12-20T10:38:06.823Z,10.39
2018-12-20T10:40:39.561Z,10.42
2018-12-20T10:43:12.205Z,10.39
2018-12-20T10:45:45.363Z,10.41
2018-12-20T10:48:18.048Z,10.43
2018-12-20T10:50:50.761Z,10.33
2018-12-20T10:53:23.631Z,10.41
2018-12-20T10:55:56.483Z,10.41
2018-12-20T10:58:29.115Z,10.43
2018-12-20T11:01:07.251Z,10.45
2018-12-20T11:03:46.148Z,10.43
2018-12-20T11:06:24.365Z,10.41
2018-12-20T11:09:02.815Z,10.35
2018-12-20T11:14:48.253Z,10.27
2018-12-20T11:17:20.980Z,10.34
2018-12-20T11:19:54.260Z,10.42
2018-12-20T11:22:26.972Z,10.32
2018-12-20T11:24:59.631Z,10.27
2018-12-20T11:27:32.303Z,10.40
2018-12-20T11:30:06.600Z,10.36
2018-12-20T11:32:39.517Z,10.40
2018-12-20T11:35:12.281Z,10.35
2018-12-20T11:37:44.909Z,10.39
2018-12-20T11:40:17.583Z,10.40
2018-12-20T11:42:50.356Z,10.46
2018-12-20T11:45:22.963Z,10.38
2018-12-20T11:47:55.626Z,10.37
2018-12-20T11:50:29.248Z,10.44
2018-12-20T11:53:02.125Z,10.50
2018-12-20T11:55:34.699Z,10.55
2018-12-20T11:58:07.538Z,10.58
2018-12-20T12:00:40.152Z,10.59
2018-12-20T12:03:12.852Z,10.59
2018-12-20T12:05:45.452Z,10.54
2018-12-20T12:08:18.199Z,10.55
2018-12-20T12:10:50.804Z,10.51
2018-12-20T12:13:23.557Z,10.49
2018-12-20T12:15:56.221Z,10.48
2018-12-20T12:18:29.004Z,10.60
2018-12-20T12:21:01.616Z,10.64
2018-12-20T12:23:34.242Z,10.69
2018-12-20T12:26:06.834Z,10.65
2018-12-20T12:28:39.517Z,10.65
2018-12-20T12:31:12.359Z,10.73
2018-12-20T12:33:45.102Z,10.82
2018-12-20T12:36:17.687Z,10.85
2018-12-20T12:38:50.452Z,10.83
2018-12-20T12:41:23.107Z,10.65
2018-12-20T12:43:55.754Z,10.69
2018-12-20T12:46:28.387Z,10.71
2018-12-20T12:49:01.018Z,10.78
2018-12-20T12:51:33.659Z,10.79
2018-12-20T12:54:06.306Z,10.66
2018-12-20T12:56:38.890Z,10.69
2018-12-20T12:59:11.597Z,10.62
2018-12-20T13:01:44.373Z,10.70
2018-12-20T13:04:17.007Z,10.68
2018-12-20T13:06:49.746Z,10.63
2018-12-20T13:09:22.388Z,10.65
2018-12-20T13:11:55.090Z,10.72
2018-12-20T13:14:27.736Z,10.78
2018-12-20T13:17:00.400Z,10.81
2018-12-20T13:19:33.182Z,10.77
2018-12-20T13:22:05.839Z,10.68
2018-12-20T13:24:40.259Z,10.68
2018-12-20T13:27:13.194Z,10.67
2018-12-20T13:29:45.888Z,10.64
2018-12-20T13:32:18.547Z,10.75
2018-12-20T13:34:51.322Z,10.73
2018-12-20T13:37:23.932Z,10.68
2018-12-20T13:39:56.685Z,10.72
2018-12-20T13:42:29.306Z,10.75
2018-12-20T13:45:02.095Z,10.82
2018-12-20T13:47:34.777Z,10.82
2018-12-20T13:50:08.061Z,10.80
2018-12-20T13:52:40.646Z,10.84
2018-12-20T13:55:13.383Z,10.85
2018-12-20T13:57:45.979Z,10.80
2018-12-20T14:00:18.622Z,10.81
2018-12-20T14:02:51.236Z,10.83
2018-12-20T14:05:23.893Z,10.83
2018-12-20T14:07:58.882Z,10.81
2018-12-20T14:10:31.263Z,10.79
2018-12-20T14:13:03.887Z,10.77
2018-12-20T14:15:36.634Z,10.70
2018-12-20T14:18:09.239Z,10.70
2018-12-20T14:20:41.914Z,10.68
2018-12-20T14:23:14.559Z,10.64
2018-12-20T14:25:47.211Z,10.67
2018-12-20T14:28:19.854Z,10.70
2018-12-20T14:30:52.590Z,10.62
2018-12-20T14:33:25.302Z,10.68
2018-12-20T14:35:57.948Z,10.68
2018-12-20T14:38:30.889Z,10.59
2018-12-20T14:41:03.616Z,10.58
2018-12-20T14:43:36.249Z,10.60
2018-12-20T14:46:09.035Z,10.59
2018-12-20T14:48:41.650Z,10.58
2018-12-20T14:51:14.370Z,10.61
2018-12-20T14:53:47.024Z,10.52
2018-12-20T14:56:20.144Z,10.53
2018-12-20T14:58:52.791Z,10.52
2018-12-20T15:01:25.434Z,10.54
2018-12-20T15:03:58.048Z,10.54
2018-12-20T15:06:30.822Z,10.51
2018-12-20T15:09:05.543Z,10.49
2018-12-20T15:11:38.325Z,10.47
2018-12-20T15:14:10.936Z,10.43
2018-12-20T15:16:43.573Z,10.40
2018-12-20T15:19:16.176Z,10.35
2018-12-20T15:21:48.908Z,10.33
2018-12-20T15:24:21.488Z,10.26
2018-12-20T15:26:54.821Z,10.27
2018-12-20T15:29:27.441Z,10.28
2018-12-20T15:32:00.160Z,10.24
2018-12-20T15:34:32.842Z,10.22
2018-12-20T15:37:05.536Z,10.23
2018-12-20T15:39:38.205Z,10.20
2018-12-20T15:42:11.019Z,10.16
2018-12-20T15:44:43.781Z,10.11
2018-12-20T15:47:16.651Z,10.10
2018-12-20T15:49:49.274Z,10.08
2018-12-20T15:52:21.960Z,10.02
2018-12-20T15:54:54.605Z,10.06
2018-12-20T15:57:28.291Z,10.06
2018-12-20T16:00:02.839Z,10.08
2018-12-20T16:02:35.958Z,10.17
2018-12-20T16:05:09.047Z,10.03
2018-12-20T16:07:41.757Z,10.08
2018-12-20T16:10:14.346Z,10.08
2018-12-20T16:12:47.074Z,10.06
2018-12-20T16:15:20.076Z,10.08
2018-12-20T16:17:53.653Z,10.11
2018-12-20T16:20:26.285Z,10.05
2018-12-20T16:22:58.929Z,10.06
2018-12-20T16:25:31.663Z,10.09
2018-12-20T16:28:04.398Z,9.99
2018-12-20T16:30:37.032Z,9.98
2018-12-20T16:33:09.690Z,9.97
2018-12-20T16:35:42.321Z,9.93
2018-12-20T16:38:15.168Z,9.97
2018-12-20T16:40:47.818Z,9.98
2018-12-20T16:43:20.708Z,9.97
2018-12-20T16:45:53.320Z,9.98
2018-12-20T16:48:25.977Z,10.04
2018-12-20T16:50:58.570Z,10.00
2018-12-20T16:53:31.267Z,9.99
2018-12-20T16:56:03.889Z,10.01
2018-12-20T16:58:36.544Z,10.01
2018-12-20T17:01:09.138Z,9.98
2018-12-20T17:03:42.073Z,9.97
2018-12-20T17:06:14.710Z,9.88
2018-12-20T17:08:48.398Z,9.87
2018-12-20T17:11:21.415Z,9.87
2018-12-20T17:13:54.023Z,9.87
2018-12-20T17:16:26.621Z,9.82
2018-12-20T17:18:59.355Z,9.87
2018-12-20T17:21:32.012Z,9.80
2018-12-20T17:24:04.823Z,9.84
2018-12-20T17:26:37.424Z,9.87
2018-12-20T17:29:10.111Z,9.88
2018-12-20T17:31:42.683Z,9.91
2018-12-20T17:34:15.312Z,9.87
2018-12-20T17:36:48.030Z,9.82
2018-12-20T17:39:20.665Z,9.79
2018-12-20T17:41:53.264Z,9.77
2018-12-20T17:44:25.874Z,9.74
2018-12-20T17:46:58.449Z,9.67
2018-12-20T17:49:31.076Z,9.47
2018-12-20T17:52:03.709Z,9.43
2018-12-20T17:54:36.436Z,9.37
2018-12-20T17:57:09.045Z,9.29
2018-12-20T17:59:41.676Z,9.29
2018-12-20T18:02:14.264Z,9.26
2018-12-20T18:04:46.927Z,9.21
2018-12-20T18:07:19.570Z,9.18
2018-12-20T18:09:52.243Z,9.18
2018-12-20T18:12:24.852Z,9.12
2018-12-20T18:14:57.574Z,9.06
2018-12-20T18:17:30.160Z,9.00
2018-12-20T18:20:02.896Z,8.98
2018-12-20T18:22:35.481Z,8.95
2018-12-20T18:25:08.203Z,8.88
2018-12-20T18:27:40.796Z,8.89
2018-12-20T18:30:13.525Z,8.82
2018-12-20T18:32:46.124Z,8.90
2018-12-20T18:35:18.752Z,8.97
2018-12-20T18:37:51.330Z,9.01
2018-12-20T18:40:23.952Z,9.05
2018-12-20T18:42:56.566Z,9.05
2018-12-20T18:45:29.297Z,9.03
2018-12-20T18:48:01.883Z,9.04
2018-12-20T18:50:34.837Z,9.11
2018-12-20T18:53:07.430Z,9.13
2018-12-20T18:55:40.125Z,9.18
2018-12-20T18:58:12.732Z,9.15
2018-12-20T19:00:45.349Z,9.14
2018-12-20T19:03:17.944Z,9.10
2018-12-20T19:05:50.569Z,9.09
2018-12-20T19:08:23.151Z,9.11
2018-12-20T19:10:55.887Z,9.22
2018-12-20T19:13:28.508Z,9.30
2018-12-20T19:16:01.130Z,9.36
2018-12-20T19:18:33.734Z,9.26
2018-12-20T19:21:06.380Z,9.37
2018-12-20T19:23:39.106Z,9.41
2018-12-20T19:26:11.864Z,9.46
2018-12-20T19:28:44.521Z,9.49
2018-12-20T19:31:17.218Z,9.46
2018-12-20T19:33:52.125Z,9.52
2018-12-20T19:36:24.602Z,9.58
2018-12-20T19:38:57.181Z,9.46
2018-12-20T19:41:29.802Z,9.54
2018-12-20T19:44:02.396Z,9.52
2018-12-20T19:46:35.113Z,9.50
2018-12-20T19:49:07.693Z,9.55
2018-12-20T19:51:40.351Z,9.52
2018-12-20T19:54:12.946Z,9.51
2018-12-20T19:56:45.655Z,9.48
2018-12-20T19:59:18.572Z,9.38
2018-12-20T20:01:51.329Z,9.46
2018-12-20T20:04:24.002Z,9.54
2018-12-20T20:06:56.729Z,9.50
2018-12-20T20:09:29.341Z,9.60
2018-12-20T20:12:01.975Z,9.59
2018-12-20T20:14:34.568Z,9.63
2018-12-20T20:17:07.185Z,9.64
2018-12-20T20:19:39.891Z,9.64
2018-12-20T20:22:12.524Z,9.69
2018-12-20T20:24:45.130Z,9.71
2018-12-20T20:27:17.779Z,9.70
2018-12-20T20:29:50.381Z,9.56
2018-12-20T20:32:23.004Z,9.56
2018-12-20T20:34:55.596Z,9.58
2018-12-20T20:37:28.294Z,9.51
2018-12-20T20:40:00.882Z,9.44
2018-12-20T20:42:33.584Z,9.54
2018-12-20T20:45:06.623Z,9.59
2018-12-20T20:47:39.509Z,9.67
2018-12-20T20:50:12.167Z,9.62
2018-12-20T20:52:44.876Z,9.63
2018-12-20T20:55:17.454Z,9.60
2018-12-20T20:57:50.076Z,9.67
2018-12-20T21:00:22.691Z,9.64
2018-12-20T21:02:55.325Z,9.63
2018-12-20T21:05:27.904Z,9.65
2018-12-20T21:08:00.533Z,9.68
2018-12-20T21:10:33.159Z,9.71
2018-12-20T21:13:05.782Z,9.47
2018-12-20T21:15:38.416Z,9.59
2018-12-20T21:18:11.097Z,9.58
2018-12-20T21:20:43.688Z,9.56
2018-12-20T21:23:16.387Z,9.58
2018-12-20T21:25:48.985Z,9.63
2018-12-20T21:28:21.627Z,9.51
2018-12-20T21:30:54.221Z,9.59
2018-12-20T21:33:26.918Z,9.48
2018-12-20T21:35:59.491Z,9.62
2018-12-20T21:38:32.099Z,9.66
2018-12-20T21:41:04.689Z,9.67
2018-12-20T21:43:37.455Z,9.68
2018-12-20T21:46:10.045Z,9.74
2018-12-20T21:48:42.674Z,9.76
2018-12-20T21:51:15.280Z,9.66
2018-12-20T21:53:54.821Z,9.63
2018-12-20T21:56:23.073Z,9.58
2018-12-20T21:58:55.891Z,9.60
2018-12-20T22:01:28.480Z,9.59
2018-12-20T22:04:01.113Z,9.65
2018-12-20T22:06:33.700Z,9.66
2018-12-20T22:09:06.452Z,9.67
2018-12-20T22:11:39.049Z,9.70
2018-12-20T22:14:12.138Z,9.67
2018-12-20T22:16:45.413Z,9.66
2018-12-20T22:19:18.855Z,9.71
2018-12-20T22:21:51.514Z,9.75
2018-12-20T22:24:24.163Z,9.76
2018-12-20T22:26:56.884Z,9.67
2018-12-20T22:29:29.515Z,9.72
2018-12-20T22:32:02.112Z,9.79
2018-12-20T22:34:34.777Z,9.76
2018-12-20T22:37:07.351Z,9.81
2018-12-20T22:39:39.984Z,9.80
2018-12-20T22:42:12.614Z,9.75
2018-12-20T22:44:45.258Z,9.68
2018-12-20T22:47:17.873Z,9.70
2018-12-20T22:49:50.565Z,9.71
2018-12-20T22:52:23.198Z,9.57
2018-12-20T22:54:55.844Z,9.52
2018-12-20T22:57:28.528Z,9.56
2018-12-20T23:00:01.252Z,9.51
2018-12-20T23:02:33.856Z,9.56
2018-12-20T23:05:06.712Z,9.60
2018-12-20T23:07:39.311Z,9.58
2018-12-20T23:10:11.939Z,9.61
2018-12-20T23:12:44.564Z,9.63
2018-12-20T23:15:17.173Z,9.66
2018-12-20T23:17:49.787Z,9.61
2018-12-20T23:20:22.480Z,9.66
2018-12-20T23:22:55.211Z,9.73
2018-12-20T23:25:27.950Z,9.66
2018-12-20T23:28:00.716Z,9.73
2018-12-20T23:30:33.451Z,9.73
2018-12-20T23:33:06.187Z,9.78
2018-12-20T23:35:39.067Z,9.79
2018-12-20T23:38:11.787Z,9.73
2018-12-20T23:40:44.585Z,9.70
2018-12-20T23:43:17.679Z,9.68
2018-12-20T23:45:50.544Z,9.68
2018-12-20T23:48:23.147Z,9.69
2018-12-20T23:50:55.864Z,9.69
2018-12-20T23:53:28.658Z,9.72
2018-12-20T23:56:01.295Z,9.71
2018-12-20T23:58:33.912Z,9.75
